Track Малышев Николай

Time Latitude Longitude Accuracy (66% radius in meters) Altitude (meters) Speed (km/hour) Bearing (degrees) Battery (%) GPS flag
10:01:47 60.253288 29.795962 0 78.3 0.90127861499786 221.97999572754 1 delete
10:00:53 60.253382 29.795948 0 76.7 0.43133720755577 318.64001464844 1 delete
10:00:24 60.253292 29.795937 0 80 0.54714971780777 283.70001220703 1 delete
10:00:14 60.253382 29.795935 0 80.9 0.33405470848083 24.079999923706 1 delete
10:00:07 60.253453 29.795807 0 80.6 0.54457610845566 347.51000976562 1 delete
09:59:52 60.253362 29.795845 0 80.4 0.31861305236816 241.22999572754 1 delete
09:59:18 60.253280 29.795937 0 81.1 0.26508194208145 351.51998901367 1 delete
09:56:01 60.253190 29.795995 0 90.9 0.44574943184853 55.130001068115 1 delete
09:55:09 60.253097 29.795992 0 96.4 0.54972332715988 261.0299987793 1 delete
09:55:00 60.253202 29.796023 0 97.6 0.67119777202606 70.550003051758 1 delete
09:54:08 60.253257 29.795842 0 106.7 1.540563583374 250.46000671387 1 delete
09:53:22 60.253298 29.796013 0 108.5 0.066399164497852 246.74000549316 1 delete
09:52:00 60.253288 29.796193 0 103 1.4844589233398 252.50999450684 1 delete
09:51:54 60.253290 29.796398 0 103.3 3.0903921127319 264.7200012207 1 delete
09:51:51 60.253297 29.796643 0 101.6 4.8090496063232 279.4700012207 1 delete
09:51:47 60.253243 29.796978 0 100.9 2.8412666320801 280.76998901367 1 delete
09:51:42 60.253202 29.797172 0 100.3 3.5737164020538 272.07000732422 1 delete
09:51:39 60.253200 29.797413 0 98.8 4.6031608581543 263.70999145508 1 delete
09:51:37 60.253228 29.797590 0 97.9 4.9593486785889 234.86000061035 1 delete
09:51:35 60.253283 29.797768 0 97 5.2275190353394 236.30999755859 1 delete
09:51:33 60.253325 29.797935 0 95.3 5.2661228179932 263.08999633789 1 delete
09:51:30 60.253355 29.798175 0 94.5 5.1369276046753 248.69000244141 1 delete
09:51:27 60.253400 29.798428 0 93.7 4.8002996444702 259.07000732422 1 delete
09:51:25 60.253422 29.798617 0 93.4 4.0240983963013 252.2799987793 1 delete
09:51:22 60.253462 29.798853 0 91.7 4.5094814300537 262.01000976562 1 delete
09:51:20 60.253475 29.799033 0 91.1 4.9804520606995 277.64999389648 1 delete
09:51:17 60.253432 29.799242 0 92.5 4.3087396621704 301.98999023438 1 delete
09:51:14 60.253442 29.799470 0 92.4 3.6421744823456 261.05999755859 1 delete
09:51:11 60.253462 29.799665 0 90.6 3.8774025440216 236.82000732422 1 delete
09:51:06 60.253632 29.799782 0 86.8 4.3005042076111 163.86000061035 1 delete
09:51:03 60.253747 29.799742 0 84.4 4.0946154594421 173.25 1 delete
09:51:00 60.253858 29.799718 0 82.8 3.8979914188385 183.66999816895 1 delete
09:50:57 60.253968 29.799715 0 82.2 3.6051144599915 184.05999755859 1 delete
09:50:54 60.254085 29.799697 0 80.7 4.2495465278625 153.2799987793 1 delete
09:50:51 60.254197 29.799650 0 80.3 4.4652152061462 175.80999755859 1 delete
09:50:40 60.254322 29.799693 0 81.3 3.5304796695709 242.2200012207 1 delete
09:50:37 60.254352 29.799960 0 81.8 4.5527181625366 249.19000244141 1 delete
09:50:34 60.254363 29.800200 0 81.2 4.3360199928284 308.70001220703 1 delete
09:50:31 60.254313 29.800393 0 81.4 3.490846157074 281.26998901367 1 delete
09:50:27 60.254342 29.800605 0 81.9 3.9638757705688 229.91999816895 1 delete
09:50:24 60.254407 29.800795 0 81.2 4.027186870575 239.63000488281 1 delete
09:50:22 60.254427 29.800990 0 82.3 3.8274743556976 272.39999389648 1 delete
09:50:19 60.254382 29.801233 0 83.8 3.4707720279694 287.23001098633 1 delete
09:50:16 60.254317 29.801420 0 84.4 4.4101400375366 280.79998779297 1 delete
09:50:14 60.254270 29.801583 0 86.6 4.4235229492188 290.10998535156 1 delete
09:50:11 60.254202 29.801775 0 86.3 3.4887871742249 291.39001464844 1 delete
09:50:08 60.254127 29.801917 0 89.6 5.7751832008362 306.88000488281 1 delete
09:50:06 60.254053 29.802090 0 92.2 6.5735173225403 304.36999511719 1 delete
09:50:04 60.254007 29.802303 0 93.4 5.9249672889709 284.66000366211 1 delete
09:50:02 60.253995 29.802517 0 93.3 5.7098135948181 261.04998779297 1 delete